Time;durP1;ratioP1;P1;durP2;ratioP2;P2;SDS_P1;SDS_P2;PMS_P1;PMS_P2;Temp;Humidity;BMP_temperature;BMP_pressure;BME280_temperature;BME280_humidity;BME280_pressure;Samples;Min_cycle;Max_cycle;Signal;HPM_P1;HPM_P2
2022/03/17 00:00:19;;;;;;;24.13;18.15;;;9.30;99.90;;;;;;5096162;28;20055;-86
2022/03/17 04:53:33;;;;;;;28.63;19.10;;;7.50;99.90;;;;;;5212861;23;20044;-87
2022/03/17 04:56:02;;;;;;;30.67;20.40;;;7.50;99.90;;;;;;4968704;28;20062;-89
2022/03/17 04:58:30;;;;;;;29.30;19.40;;;7.60;99.90;;;;;;4955149;29;20087;-89
2022/03/17 05:00:58;;;;;;;29.58;19.42;;;7.60;99.90;;;;;;4963861;29;20043;-86
2022/03/17 05:03:26;;;;;;;27.10;18.65;;;7.60;99.90;;;;;;4961392;29;20074;-87
2022/03/17 05:05:53;;;;;;;25.33;17.52;;;7.70;99.90;;;;;;4934457;29;20047;-88
2022/03/17 05:08:21;;;;;;;26.10;17.30;;;7.80;99.90;;;;;;4946027;29;20086;-88
2022/03/17 05:10:52;;;;;;;25.73;17.00;;;7.80;99.90;;;;;;4962949;29;20075;-88
2022/03/17 05:13:22;;;;;;;25.13;17.75;;;7.70;99.90;;;;;;4962213;29;20054;-90
2022/03/17 05:15:51;;;;;;;28.50;18.95;;;7.50;99.90;;;;;;4966675;29;20047;-87
2022/03/17 05:18:19;;;;;;;27.17;18.65;;;7.20;99.90;;;;;;4965163;29;20051;-85
2022/03/17 05:20:48;;;;;;;23.58;16.95;;;7.20;99.90;;;;;;4961281;29;20058;-84
2022/03/17 05:23:18;;;;;;;25.13;17.13;;;7.30;99.90;;;;;;4962585;29;20078;-86
2022/03/17 05:25:47;;;;;;;27.60;18.75;;;7.50;99.90;;;;;;4938984;29;20134;-85
2022/03/17 05:28:16;;;;;;;27.25;18.13;;;7.30;99.90;;;;;;4955667;28;20043;-86
2022/03/17 05:30:45;;;;;;;25.20;17.50;;;7.10;99.90;;;;;;4954914;29;20077;-84
2022/03/17 05:33:13;;;;;;;26.42;18.38;;;7.10;99.90;;;;;;4955927;29;20106;-85
2022/03/17 05:35:41;;;;;;;27.48;18.83;;;7.10;99.90;;;;;;4959315;29;20471;-86
2022/03/17 05:38:08;;;;;;;25.23;17.48;;;7.10;99.90;;;;;;4960532;29;20078;-85
2022/03/17 05:40:36;;;;;;;29.98;19.63;;;7.30;99.90;;;;;;4956803;28;20047;-86
2022/03/17 05:43:07;;;;;;;24.77;17.98;;;7.20;99.90;;;;;;4955865;29;20074;-85
2022/03/17 05:45:37;;;;;;;26.92;17.70;;;7.20;99.90;;;;;;4955878;29;20058;-87
2022/03/17 05:48:07;;;;;;;31.73;20.80;;;7.20;99.90;;;;;;4955860;29;20501;-84
2022/03/17 05:50:37;;;;;;;30.98;21.73;;;6.70;99.90;;;;;;4955976;29;20094;-85
2022/03/17 05:53:05;;;;;;;32.08;20.83;;;6.50;99.90;;;;;;4955907;29;20066;-85
2022/03/17 05:55:33;;;;;;;31.75;21.77;;;6.60;99.90;;;;;;4955986;29;20079;-86
2022/03/17 05:58:00;;;;;;;30.25;20.13;;;6.70;99.90;;;;;;4955791;29;20058;-84
2022/03/17 06:00:29;;;;;;;32.72;21.95;;;6.70;99.90;;;;;;4956258;28;20110;-86
2022/03/17 06:02:59;;;;;;;34.33;21.92;;;6.80;99.90;;;;;;4955659;29;20074;-84
2022/03/17 06:05:27;;;;;;;34.83;23.42;;;6.80;99.90;;;;;;4939361;29;20134;-85
2022/03/17 06:07:58;;;;;;;30.95;21.02;;;6.70;99.90;;;;;;4958343;28;20134;-86
2022/03/17 06:10:28;;;;;;;30.50;20.70;;;6.90;99.90;;;;;;4959689;29;20047;-86
2022/03/17 06:12:56;;;;;;;30.02;20.48;;;7.00;99.90;;;;;;4959693;29;20489;-86
2022/03/17 06:15:24;;;;;;;31.85;21.80;;;7.10;99.90;;;;;;4959875;29;20098;-84
2022/03/17 06:17:54;;;;;;;29.27;19.90;;;6.90;99.90;;;;;;4942813;29;20130;-84
2022/03/17 06:20:26;;;;;;;27.52;19.35;;;7.00;99.90;;;;;;4943856;29;20134;-84
2022/03/17 06:22:55;;;;;;;29.40;19.52;;;7.10;99.90;;;;;;4967035;29;20051;-86
2022/03/17 06:25:25;;;;;;;27.65;18.45;;;7.20;99.90;;;;;;4966475;29;20094;-86
2022/03/17 06:27:52;;;;;;;29.25;19.48;;;7.30;99.90;;;;;;4959906;28;20138;-86
2022/03/17 06:30:22;;;;;;;29.98;19.60;;;7.30;99.90;;;;;;4959300;29;20135;-86
2022/03/17 06:32:50;;;;;;;27.35;18.73;;;7.20;99.90;;;;;;4959197;29;20142;-85
2022/03/17 06:35:19;;;;;;;28.55;19.17;;;7.30;99.90;;;;;;4942642;29;20062;-83
2022/03/17 06:37:51;;;;;;;29.08;19.70;;;7.40;99.90;;;;;;4958969;28;20065;-85
2022/03/17 06:40:19;;;;;;;26.92;18.85;;;7.30;99.90;;;;;;4958915;29;20051;-85
2022/03/17 06:42:47;;;;;;;26.58;18.15;;;7.40;99.90;;;;;;4959060;29;20416;-85
2022/03/17 06:45:15;;;;;;;28.27;19.25;;;7.50;99.90;;;;;;4958947;29;20043;-85
2022/03/17 06:47:43;;;;;;;30.38;19.65;;;7.50;99.90;;;;;;4958648;29;20138;-85
2022/03/17 06:50:13;;;;;;;28.23;19.38;;;7.30;99.90;;;;;;4960422;29;20090;-83
2022/03/17 06:52:40;;;;;;;26.92;19.67;;;7.30;99.90;;;;;;4959598;29;20133;-83
2022/03/17 06:55:11;;;;;;;25.20;17.92;;;7.40;99.90;;;;;;4939466;29;20138;-85
2022/03/17 06:57:38;;;;;;;26.38;18.30;;;7.60;99.90;;;;;;4939276;29;20138;-85
2022/03/17 07:00:08;;;;;;;32.65;22.30;;;7.60;99.90;;;;;;4939369;29;20056;-85
2022/03/17 07:02:35;;;;;;;31.63;21.67;;;7.30;99.90;;;;;;4939002;29;20610;-84
2022/03/17 07:05:02;;;;;;;30.23;21.38;;;7.20;99.90;;;;;;4940016;29;20497;-86
2022/03/17 07:07:30;;;;;;;31.77;21.27;;;7.10;99.90;;;;;;4939861;29;20056;-84
2022/03/17 07:09:57;;;;;;;31.25;22.08;;;7.10;99.90;;;;;;4939682;29;20130;-84
2022/03/17 07:12:25;;;;;;;29.23;20.58;;;7.20;99.90;;;;;;4940004;28;20054;-86
2022/03/17 07:14:53;;;;;;;31.73;22.42;;;7.30;99.90;;;;;;4941656;29;20134;-83
2022/03/17 07:17:21;;;;;;;35.75;23.95;;;7.30;99.90;;;;;;4941464;29;20051;-83
2022/03/17 07:22:24;;;;;;;38.90;25.75;;;7.10;99.90;;;;;;4942101;29;20520;-85
2022/03/17 07:24:51;;;;;;;34.83;22.65;;;7.00;99.90;;;;;;4941176;29;20059;-84
2022/03/17 07:27:18;;;;;;;41.63;23.98;;;7.00;99.90;;;;;;4940827;29;20139;-84
2022/03/17 07:29:47;;;;;;;34.75;22.25;;;6.90;99.90;;;;;;4940083;29;20079;-85
2022/03/17 07:32:14;;;;;;;31.77;21.75;;;7.00;99.90;;;;;;4940999;29;20044;-83
2022/03/17 07:34:41;;;;;;;34.33;23.13;;;6.80;99.90;;;;;;4941088;29;20090;-86
2022/03/17 07:37:08;;;;;;;35.53;22.98;;;6.80;99.90;;;;;;4939007;29;20051;-86
2022/03/17 07:39:35;;;;;;;31.88;21.48;;;6.90;99.90;;;;;;4938992;29;20087;-86
2022/03/17 07:42:04;;;;;;;31.10;21.38;;;7.00;99.90;;;;;;4938715;29;20082;-85
2022/03/17 07:44:31;;;;;;;32.67;22.02;;;7.00;99.90;;;;;;4938811;29;20073;-85
2022/03/17 07:47:00;;;;;;;31.60;20.83;;;7.20;99.90;;;;;;4937284;29;20131;-85
2022/03/17 07:49:28;;;;;;;27.63;19.02;;;7.50;99.90;;;;;;4938713;29;20052;-84
2022/03/17 07:51:55;;;;;;;27.58;19.17;;;7.60;99.90;;;;;;4938751;29;20114;-85
2022/03/17 07:54:23;;;;;;;28.45;18.92;;;7.70;99.90;;;;;;4936830;29;20162;-85
2022/03/17 07:56:50;;;;;;;30.90;20.30;;;7.80;99.90;;;;;;4938379;29;20079;-85
2022/03/17 07:59:18;;;;;;;30.95;20.38;;;7.90;99.90;;;;;;4938373;29;20211;-84
2022/03/17 08:01:45;;;;;;;28.80;20.33;;;7.90;99.90;;;;;;4938178;28;20139;-85
2022/03/17 08:04:14;;;;;;;29.48;19.98;;;8.00;99.90;;;;;;4938632;29;20139;-83
2022/03/17 08:06:41;;;;;;;27.55;19.13;;;8.10;99.90;;;;;;4938142;28;20066;-84
2022/03/17 08:09:08;;;;;;;30.60;20.35;;;8.20;99.90;;;;;;4938387;28;20051;-85
2022/03/17 08:11:35;;;;;;;32.17;21.00;;;8.30;99.90;;;;;;4938200;29;20116;-83
2022/03/17 08:14:02;;;;;;;30.15;21.08;;;8.30;99.90;;;;;;4939533;28;20142;-85
2022/03/17 08:16:30;;;;;;;34.90;23.67;;;8.30;99.90;;;;;;4949927;29;20086;-84
2022/03/17 08:18:57;;;;;;;31.27;21.77;;;8.30;99.90;;;;;;4938581;29;20055;-85
2022/03/17 08:21:25;;;;;;;30.77;21.73;;;8.40;99.90;;;;;;4938244;29;20549;-84
2022/03/17 08:23:52;;;;;;;34.25;24.65;;;8.60;99.90;;;;;;4937232;29;20484;-82
2022/03/17 08:26:19;;;;;;;34.70;21.98;;;8.40;99.90;;;;;;4937987;29;20098;-83
2022/03/17 08:28:46;;;;;;;31.10;21.17;;;8.40;99.90;;;;;;4938325;29;20090;-83
2022/03/17 08:31:14;;;;;;;30.05;20.95;;;8.50;99.90;;;;;;4937147;28;20569;-84
2022/03/17 08:33:41;;;;;;;32.20;22.45;;;8.50;99.90;;;;;;4938569;29;20422;-84
2022/03/17 08:36:08;;;;;;;33.13;23.10;;;8.60;99.90;;;;;;4938782;28;20192;-85
2022/03/17 08:38:37;;;;;;;33.92;23.77;;;8.60;99.90;;;;;;4937475;29;20080;-84
2022/03/17 08:41:04;;;;;;;31.98;22.63;;;8.70;99.90;;;;;;4937456;29;20130;-84
2022/03/17 08:43:31;;;;;;;37.58;25.58;;;8.70;99.90;;;;;;4938983;29;20087;-84
2022/03/17 08:51:29;;;;;;;37.15;26.20;;;8.60;99.90;;;;;;4932345;28;20187;-82
2022/03/17 08:53:58;;;;;;;38.22;25.38;;;8.50;99.90;;;;;;4946759;28;20560;-84
2022/03/17 08:56:25;;;;;;;34.53;23.90;;;8.40;99.90;;;;;;4956390;29;20048;-84
2022/03/17 08:58:53;;;;;;;32.60;23.48;;;8.50;99.90;;;;;;4939846;29;20134;-83
2022/03/17 09:01:20;;;;;;;37.28;25.15;;;8.70;99.90;;;;;;4959901;29;20055;-85
2022/03/17 09:03:47;;;;;;;37.67;25.30;;;8.60;99.90;;;;;;4957152;29;20134;-84
2022/03/17 09:06:14;;;;;;;35.30;24.33;;;8.60;99.90;;;;;;4956272;29;20082;-84
2022/03/17 09:08:42;;;;;;;33.33;23.13;;;8.60;99.90;;;;;;4955510;29;20065;-83
2022/03/17 09:11:13;;;;;;;34.25;23.65;;;8.60;99.90;;;;;;4956004;29;20523;-84
2022/03/17 09:13:40;;;;;;;33.65;23.65;;;8.70;99.90;;;;;;4923411;29;20081;-84
2022/03/17 09:16:08;;;;;;;33.08;22.52;;;8.70;99.90;;;;;;4938986;29;20130;-84
2022/03/17 09:18:36;;;;;;;35.25;24.20;;;8.90;99.90;;;;;;4939012;29;20130;-84
2022/03/17 09:21:04;;;;;;;34.83;23.00;;;9.00;99.90;;;;;;4939634;29;20051;-85
2022/03/17 09:23:32;;;;;;;32.42;22.80;;;9.00;99.90;;;;;;4923523;29;20047;-86
2022/03/17 09:25:59;;;;;;;34.58;23.33;;;9.10;99.90;;;;;;4955748;28;20051;-84
2022/03/17 09:28:28;;;;;;;32.72;23.77;;;9.10;99.90;;;;;;4956080;29;20097;-85
2022/03/17 09:30:55;;;;;;;35.80;24.55;;;9.10;99.90;;;;;;4938606;29;20131;-84
2022/03/17 09:33:25;;;;;;;34.30;24.30;;;9.20;99.90;;;;;;4938870;29;20051;-85
2022/03/17 09:35:53;;;;;;;31.52;22.60;;;9.30;99.90;;;;;;4956377;29;20051;-82
2022/03/17 09:38:21;;;;;;;34.10;22.80;;;9.20;99.90;;;;;;4959407;29;20457;-85
2022/03/17 09:40:48;;;;;;;32.22;22.90;;;9.30;99.90;;;;;;4959551;28;20086;-84
2022/03/17 09:43:28;;;;;;;32.97;22.52;;;9.40;99.90;;;;;;4954181;29;20110;-86
2022/03/17 09:45:58;;;;;;;35.05;23.45;;;9.50;99.90;;;;;;4955482;29;20047;-87
2022/03/17 09:48:28;;;;;;;32.92;23.35;;;9.50;99.90;;;;;;4955466;29;20074;-87
2022/03/17 09:50:59;;;;;;;35.13;25.40;;;9.40;99.90;;;;;;4938219;29;20141;-87
2022/03/17 09:53:27;;;;;;;35.63;25.25;;;9.40;99.90;;;;;;4955271;28;20058;-84
2022/03/17 09:55:55;;;;;;;33.15;23.90;;;9.40;99.90;;;;;;4966478;29;20476;-86
2022/03/17 09:58:22;;;;;;;35.08;24.10;;;9.50;99.90;;;;;;4972902;28;20552;-84
2022/03/17 10:00:49;;;;;;;34.80;24.77;;;9.50;99.90;;;;;;4973690;29;20152;-87
2022/03/17 10:03:21;;;;;;;30.02;22.08;;;9.50;99.90;;;;;;4972668;29;20055;-86
2022/03/17 10:05:49;;;;;;;31.20;22.40;;;9.60;99.90;;;;;;4955292;29;20087;-85
2022/03/17 10:08:20;;;;;;;34.03;23.63;;;9.70;99.90;;;;;;4964746;29;20074;-85
2022/03/17 10:10:49;;;;;;;34.22;24.02;;;9.60;99.90;;;;;;4956392;29;20066;-86
2022/03/17 10:13:21;;;;;;;33.35;23.00;;;9.70;99.90;;;;;;4973901;29;20055;-87
2022/03/17 10:16:06;;;;;;;32.42;22.60;;;9.80;99.90;;;;;;4973411;29;20075;-86
2022/03/17 10:18:37;;;;;;;35.35;23.55;;;9.80;99.90;;;;;;4973043;29;20062;-86
2022/03/17 10:21:10;;;;;;;30.98;21.90;;;9.70;99.90;;;;;;4957561;29;20051;-86
2022/03/17 10:23:49;;;;;;;35.85;24.33;;;9.80;99.90;;;;;;4972701;29;20103;-86
2022/03/17 10:26:37;;;;;;;37.17;26.10;;;9.80;99.90;;;;;;4973344;28;20075;-86
2022/03/17 10:29:10;;;;;;;34.58;24.25;;;9.70;99.90;;;;;;4972215;29;20035;-86
2022/03/17 10:31:58;;;;;;;31.15;21.85;;;9.80;99.90;;;;;;4968829;29;20444;-84
2022/03/17 10:34:29;;;;;;;35.75;25.83;;;9.90;99.90;;;;;;4970035;28;20051;-84
2022/03/17 10:37:16;;;;;;;40.42;28.20;;;9.80;99.90;;;;;;4968856;29;20547;-85
2022/03/17 10:39:46;;;;;;;41.95;28.20;;;9.70;99.90;;;;;;4954896;29;20110;-86
2022/03/17 10:42:16;;;;;;;42.85;29.55;;;9.60;99.90;;;;;;4955687;29;20220;-86
2022/03/17 10:44:48;;;;;;;39.88;26.83;;;9.60;99.90;;;;;;4940028;29;20078;-87
2022/03/17 10:47:23;;;;;;;39.03;27.10;;;9.60;99.90;;;;;;4959178;29;20142;-87
2022/03/17 10:50:14;;;;;;;39.58;27.98;;;9.70;99.90;;;;;;4940433;29;20055;-85
2022/03/17 10:52:51;;;;;;;43.08;29.30;;;9.60;99.90;;;;;;4954934;28;20507;-87
2022/03/17 10:55:24;;;;;;;49.30;31.60;;;9.60;99.90;;;;;;4958372;29;20051;-86
2022/03/17 10:57:54;;;;;;;49.33;32.47;;;9.70;99.90;;;;;;4957828;29;20516;-87
2022/03/17 11:00:24;;;;;;;38.20;26.05;;;9.70;99.90;;;;;;4940890;29;20055;-85
2022/03/17 11:02:53;;;;;;;40.35;27.50;;;9.70;99.90;;;;;;4940625;29;20465;-86
2022/03/17 11:05:22;;;;;;;38.92;26.98;;;9.80;99.90;;;;;;4957128;29;20055;-85
2022/03/17 11:07:49;;;;;;;36.72;24.90;;;9.90;99.90;;;;;;4958100;29;20047;-85
2022/03/17 11:10:19;;;;;;;33.40;23.88;;;9.90;99.90;;;;;;4956994;29;20670;-86
2022/03/17 11:12:47;;;;;;;36.33;25.02;;;10.00;99.90;;;;;;4956939;29;20465;-85
2022/03/17 11:15:14;;;;;;;39.65;27.05;;;10.00;99.90;;;;;;4957181;29;20138;-87
2022/03/17 11:17:47;;;;;;;38.35;26.70;;;10.00;99.90;;;;;;4957700;29;20054;-85
2022/03/17 11:20:22;;;;;;;37.55;25.65;;;10.10;99.90;;;;;;4957088;29;20047;-85
2022/03/17 11:23:06;;;;;;;34.75;24.52;;;10.10;99.90;;;;;;4958025;29;20052;-87
2022/03/17 11:25:35;;;;;;;;;;;10.10;99.90;;;;;;4959948;28;20059;-86
2022/03/17 11:28:04;;;;;;;36.03;24.20;;;10.10;99.90;;;;;;4957162;29;19922;-88
2022/03/17 11:30:42;;;;;;;32.83;23.08;;;10.10;99.90;;;;;;4956894;29;20409;-87
2022/03/17 11:33:22;;;;;;;31.90;22.63;;;10.20;99.90;;;;;;4955254;29;20051;-87
2022/03/17 11:35:59;;;;;;;34.47;24.02;;;10.20;99.90;;;;;;4939788;29;20398;-86
2022/03/17 11:38:30;;;;;;;35.35;23.23;;;10.10;99.90;;;;;;4956890;29;20055;-86
2022/03/17 11:41:13;;;;;;;32.22;22.17;;;10.20;99.90;;;;;;4956385;29;20066;-87
2022/03/17 11:44:03;;;;;;;33.38;22.73;;;10.40;99.90;;;;;;4956352;29;20110;-85
2022/03/17 11:46:47;;;;;;;28.85;20.65;;;10.50;99.90;;;;;;4937676;29;20052;-87
2022/03/17 11:49:21;;;;;;;33.55;22.45;;;10.50;99.90;;;;;;4936591;29;20062;-87
2022/03/17 11:52:11;;;;;;;32.07;22.67;;;10.50;99.90;;;;;;4937860;29;20051;-86
2022/03/17 11:54:38;;;;;;;31.05;22.00;;;10.60;99.90;;;;;;4940669;29;20059;-86
2022/03/17 11:57:05;;;;;;;30.73;21.58;;;10.60;99.90;;;;;;4932445;29;20098;-87
2022/03/17 11:59:51;;;;;;;31.83;21.92;;;10.60;99.90;;;;;;4949380;29;20417;-84
2022/03/17 12:02:24;;;;;;;30.30;21.90;;;10.70;99.90;;;;;;4941251;29;20051;-85
2022/03/17 12:04:52;;;;;;;28.70;20.15;;;10.80;99.90;;;;;;4940823;29;20094;-87
2022/03/17 12:07:22;;;;;;;29.25;18.92;;;10.80;99.90;;;;;;4943571;29;20054;-84
2022/03/17 12:09:49;;;;;;;29.98;20.42;;;10.90;99.90;;;;;;4922773;29;20202;-86
2022/03/17 12:12:23;;;;;;;31.25;22.27;;;10.90;99.90;;;;;;4941854;29;20375;-85
2022/03/17 12:14:54;;;;;;;31.10;22.38;;;10.80;99.90;;;;;;4937926;29;20051;-82
2022/03/17 12:17:23;;;;;;;29.70;21.75;;;10.80;99.90;;;;;;4954484;29;20055;-83
2022/03/17 12:20:07;;;;;;;31.75;20.85;;;10.90;99.90;;;;;;4954889;29;20500;-83
2022/03/17 12:22:39;;;;;;;28.58;20.33;;;10.90;99.90;;;;;;4937977;29;20050;-82
2022/03/17 12:25:17;;;;;;;30.50;20.80;;;10.90;99.90;;;;;;4954529;29;20049;-83
2022/03/17 12:27:51;;;;;;;29.10;20.42;;;11.00;99.90;;;;;;4954553;29;20058;-84
2022/03/17 12:30:20;;;;;;;31.10;21.65;;;11.00;99.90;;;;;;4954359;29;20462;-83
2022/03/17 12:32:49;;;;;;;29.92;20.23;;;11.00;99.90;;;;;;4953270;28;20055;-85
2022/03/17 12:35:17;;;;;;;29.92;21.45;;;11.00;99.90;;;;;;4954633;29;20130;-83
2022/03/17 12:37:46;;;;;;;28.33;19.98;;;11.10;99.90;;;;;;4954445;29;20560;-83
2022/03/17 12:40:17;;;;;;;30.17;20.92;;;11.10;99.90;;;;;;4937474;29;20497;-84
2022/03/17 12:42:47;;;;;;;28.80;20.83;;;11.10;99.90;;;;;;4954209;29;20061;-83
2022/03/17 12:45:16;;;;;;;32.03;21.73;;;11.10;99.90;;;;;;4953842;28;20110;-82
2022/03/17 12:47:46;;;;;;;31.42;21.67;;;11.00;99.90;;;;;;4949555;29;20139;-83
2022/03/17 12:50:16;;;;;;;36.95;24.65;;;11.00;99.90;;;;;;4935020;29;20059;-82
2022/03/17 12:52:47;;;;;;;34.35;23.10;;;10.80;99.90;;;;;;4947975;29;20122;-83
2022/03/17 12:55:16;;;;;;;34.75;24.00;;;10.80;99.90;;;;;;4937635;29;20592;-82
2022/03/17 12:57:44;;;;;;;32.45;22.08;;;10.80;99.90;;;;;;4937261;29;20077;-84
2022/03/17 13:00:16;;;;;;;29.02;20.50;;;10.90;99.90;;;;;;4953912;29;20134;-83
2022/03/17 13:02:46;;;;;;;33.88;22.95;;;10.90;99.90;;;;;;4937009;29;20453;-83
2022/03/17 13:08:03;;;;;;;39.28;27.58;;;10.80;99.90;;;;;;4935056;29;20067;-85
2022/03/17 13:14:20;;;;;;;37.53;26.63;;;10.60;99.90;;;;;;4941380;29;20141;-83
2022/03/17 13:16:04;;;;;;;36.65;24.90;;;10.70;99.90;;;;;;4919775;29;20516;-85
2022/03/17 13:18:41;;;;;;;33.72;23.52;;;10.70;99.90;;;;;;4934471;29;20146;-84
2022/03/17 13:21:12;;;;;;;36.65;25.02;;;10.60;99.90;;;;;;4934982;29;20050;-83
2022/03/17 13:23:41;;;;;;;38.25;26.23;;;10.60;99.90;;;;;;4918324;29;20059;-85
2022/03/17 13:26:08;;;;;;;36.75;24.83;;;10.50;99.90;;;;;;4917764;29;20091;-84
2022/03/17 13:28:35;;;;;;;36.78;24.92;;;10.60;99.90;;;;;;4917711;29;20564;-84
2022/03/17 13:31:03;;;;;;;39.30;26.70;;;10.70;99.90;;;;;;4934717;29;20051;-83
2022/03/17 13:33:33;;;;;;;38.75;26.80;;;10.80;99.90;;;;;;4932912;29;20059;-83
2022/03/17 13:36:01;;;;;;;35.17;24.92;;;10.70;99.90;;;;;;4924468;29;20138;-82
2022/03/17 13:38:32;;;;;;;36.20;23.63;;;10.80;99.90;;;;;;4953205;28;20051;-84
2022/03/17 13:41:02;;;;;;;30.95;21.52;;;10.90;99.90;;;;;;4942872;29;20062;-83
2022/03/17 13:43:32;;;;;;;33.40;22.45;;;10.90;99.90;;;;;;4933776;29;20134;-83
2022/03/17 13:46:01;;;;;;;32.92;22.02;;;11.00;99.90;;;;;;4934894;29;20106;-85
2022/03/17 13:48:31;;;;;;;34.25;23.88;;;10.90;99.90;;;;;;4934725;29;20147;-84
2022/03/17 13:51:00;;;;;;;34.33;23.33;;;10.90;99.90;;;;;;4934291;29;20580;-83
2022/03/17 13:53:29;;;;;;;33.42;22.45;;;10.90;99.90;;;;;;4943012;28;20151;-82
2022/03/17 13:55:58;;;;;;;34.17;22.80;;;10.90;99.90;;;;;;4952896;29;20087;-81
2022/03/17 13:58:30;;;;;;;33.22;21.67;;;11.00;99.90;;;;;;4952544;29;20132;-80
2022/03/17 14:01:08;;;;;;;31.63;21.35;;;11.00;99.90;;;;;;4952969;29;20114;-81
2022/03/17 14:03:37;;;;;;;29.02;21.10;;;11.00;99.90;;;;;;4952774;29;20134;-83
2022/03/17 14:06:10;;;;;;;31.20;21.05;;;10.90;99.90;;;;;;4952031;29;20083;-83
2022/03/17 14:08:41;;;;;;;31.00;21.55;;;10.90;99.90;;;;;;4953038;28;20159;-81
2022/03/17 14:11:10;;;;;;;34.42;23.23;;;11.00;99.90;;;;;;4952678;28;20077;-81
2022/03/17 14:13:41;;;;;;;34.25;23.30;;;11.10;99.90;;;;;;4952832;29;20139;-82
2022/03/17 14:16:10;;;;;;;36.97;26.80;;;10.90;99.90;;;;;;4953206;29;20580;-81
2022/03/17 14:18:39;;;;;;;43.25;28.48;;;10.90;99.90;;;;;;4952659;29;20086;-82
2022/03/17 14:21:08;;;;;;;43.78;29.20;;;10.80;99.90;;;;;;4952951;28;20503;-83
2022/03/17 14:26:21;;;;;;;40.92;26.38;;;10.80;99.90;;;;;;4952918;29;20515;-82
2022/03/17 14:28:50;;;;;;;38.35;26.65;;;10.80;99.90;;;;;;4938155;29;20129;-83
2022/03/17 14:31:18;;;;;;;40.63;26.80;;;10.80;99.90;;;;;;4954402;29;20055;-82
2022/03/17 14:33:48;;;;;;;35.80;24.73;;;10.80;99.90;;;;;;4956694;29;20058;-82
2022/03/17 14:36:16;;;;;;;37.55;26.25;;;10.80;99.90;;;;;;4956712;29;20079;-83
2022/03/17 14:38:46;;;;;;;41.78;27.25;;;10.80;99.90;;;;;;4957099;29;20386;-83
2022/03/17 14:41:16;;;;;;;43.53;29.17;;;10.80;99.90;;;;;;4956512;29;20063;-82
2022/03/17 14:43:43;;;;;;;48.33;30.17;;;10.80;99.90;;;;;;4956733;29;20489;-82
2022/03/17 14:46:13;;;;;;;39.30;27.52;;;10.70;99.90;;;;;;4956557;29;20568;-82
2022/03/17 14:48:40;;;;;;;43.67;30.15;;;10.70;99.90;;;;;;4956831;29;20043;-82
2022/03/17 14:51:09;;;;;;;42.35;29.52;;;10.70;99.90;;;;;;4961300;29;20058;-83
2022/03/17 14:53:36;;;;;;;38.00;26.55;;;10.60;99.90;;;;;;4948437;29;20114;-83
2022/03/17 14:56:09;;;;;;;39.00;25.83;;;10.60;99.90;;;;;;4957034;29;20239;-81
2022/03/17 14:58:38;;;;;;;38.35;25.83;;;10.60;99.90;;;;;;4958739;28;20055;-83
2022/03/17 15:01:07;;;;;;;39.83;26.20;;;10.60;99.90;;;;;;4956228;29;20489;-82
2022/03/17 15:03:36;;;;;;;40.22;27.80;;;10.60;99.90;;;;;;4956766;29;20055;-83
2022/03/17 15:06:03;;;;;;;40.75;27.38;;;10.50;99.90;;;;;;4955686;29;20567;-81
2022/03/17 15:08:30;;;;;;;37.47;26.23;;;10.50;99.90;;;;;;4956061;29;20520;-81
2022/03/17 15:10:58;;;;;;;36.28;25.42;;;10.50;99.90;;;;;;4956137;29;20138;-81
2022/03/17 15:13:25;;;;;;;35.58;24.83;;;10.50;99.90;;;;;;4956130;28;20493;-81
2022/03/17 15:15:52;;;;;;;39.33;26.55;;;10.50;99.90;;;;;;4955919;29;20142;-83
2022/03/17 15:18:19;;;;;;;38.30;26.92;;;10.50;99.90;;;;;;4936461;29;20057;-81
2022/03/17 15:20:48;;;;;;;37.10;25.20;;;10.40;99.90;;;;;;4937071;29;20054;-83
2022/03/17 15:23:15;;;;;;;37.45;25.98;;;10.40;99.90;;;;;;4936942;29;20143;-81
2022/03/17 15:25:42;;;;;;;36.03;25.65;;;10.40;99.90;;;;;;4936941;29;20060;-81
2022/03/17 15:30:55;;;;;;;32.95;23.10;;;10.30;99.90;;;;;;4936455;29;20070;-82
2022/03/17 15:33:22;;;;;;;36.58;26.25;;;10.40;99.90;;;;;;4934225;29;20446;-83
2022/03/17 15:35:51;;;;;;;35.42;24.85;;;10.30;99.90;;;;;;4936359;29;20134;-84
2022/03/17 15:38:19;;;;;;;38.78;26.40;;;10.30;99.90;;;;;;4920192;29;20059;-82
2022/03/17 15:40:49;;;;;;;33.80;23.73;;;10.30;99.90;;;;;;4936174;29;20143;-83
2022/03/17 15:43:16;;;;;;;33.97;23.58;;;10.30;99.90;;;;;;4919563;29;20059;-83
2022/03/17 15:45:44;;;;;;;36.90;25.75;;;10.30;99.90;;;;;;4940585;29;20454;-82
2022/03/17 15:48:11;;;;;;;34.80;25.25;;;10.30;99.90;;;;;;4962260;28;20048;-82
2022/03/17 15:50:40;;;;;;;36.05;23.90;;;10.30;99.90;;;;;;4961978;29;20115;-84
2022/03/17 15:53:09;;;;;;;33.63;23.42;;;10.20;99.90;;;;;;4964025;29;20142;-83
2022/03/17 15:55:36;;;;;;;39.20;27.85;;;10.40;99.90;;;;;;4961648;29;20090;-84
2022/03/17 15:58:03;;;;;;;40.90;28.13;;;10.10;99.90;;;;;;4956303;28;20154;-80
2022/03/17 16:00:30;;;;;;;35.60;25.25;;;10.00;99.90;;;;;;4954397;29;20137;-83
2022/03/17 16:03:01;;;;;;;38.55;27.35;;;10.20;99.90;;;;;;4953779;29;20074;-80
2022/03/17 16:05:28;;;;;;;37.88;26.33;;;10.10;99.90;;;;;;4953765;29;20142;-83
2022/03/17 16:07:56;;;;;;;38.90;25.02;;;10.10;99.90;;;;;;4958450;29;20141;-84
2022/03/17 16:15:58;;;;;;;39.90;26.83;;;10.00;99.90;;;;;;4960112;29;20093;-83
2022/03/17 16:18:25;;;;;;;40.40;28.27;;;9.90;99.90;;;;;;4960564;29;20497;-82
2022/03/17 16:20:53;;;;;;;37.45;26.55;;;9.90;99.90;;;;;;4960145;29;20059;-82
2022/03/17 16:23:22;;;;;;;36.15;24.98;;;9.90;99.90;;;;;;4941069;29;20236;-82
2022/03/17 16:25:53;;;;;;;36.45;25.85;;;10.00;99.90;;;;;;4938517;29;20647;-82
2022/03/17 16:28:21;;;;;;;40.42;28.08;;;9.90;99.90;;;;;;4945568;29;20086;-82
2022/03/17 16:30:49;;;;;;;40.75;28.48;;;9.80;99.90;;;;;;4954420;29;20138;-83
2022/03/17 16:33:18;;;;;;;38.13;27.38;;;9.90;99.90;;;;;;4918355;29;20055;-80
2022/03/17 16:35:46;;;;;;;37.08;25.85;;;9.90;99.90;;;;;;4954454;29;20416;-83
2022/03/17 16:38:14;;;;;;;36.10;24.63;;;9.90;99.90;;;;;;4937497;29;20110;-81
2022/03/17 16:40:42;;;;;;;34.15;24.55;;;9.90;99.90;;;;;;4952972;28;20139;-83
2022/03/17 16:43:11;;;;;;;33.70;24.33;;;9.90;99.90;;;;;;4954443;29;20520;-85
2022/03/17 16:45:38;;;;;;;33.13;23.63;;;9.90;99.90;;;;;;4953528;29;20134;-83
2022/03/17 16:48:06;;;;;;;32.67;23.77;;;9.90;99.90;;;;;;4953282;29;20466;-84
2022/03/17 16:50:34;;;;;;;34.28;24.17;;;9.90;99.90;;;;;;4951702;28;20065;-82
2022/03/17 16:53:03;;;;;;;34.20;23.10;;;9.90;99.90;;;;;;4936261;29;20461;-84
2022/03/17 16:55:31;;;;;;;36.45;24.40;;;9.90;99.90;;;;;;4953753;29;20507;-84
2022/03/17 16:58:00;;;;;;;39.92;27.63;;;9.90;99.90;;;;;;4954307;29;20142;-84
2022/03/17 17:00:31;;;;;;;39.15;26.90;;;9.80;99.90;;;;;;4952882;29;20557;-83
2022/03/17 17:02:58;;;;;;;33.97;23.40;;;9.80;99.90;;;;;;4936417;29;20059;-80
2022/03/17 17:05:26;;;;;;;32.40;22.48;;;9.90;99.90;;;;;;4953293;28;20716;-83
2022/03/17 17:07:53;;;;;;;32.63;22.92;;;9.80;99.90;;;;;;4953628;29;20059;-81
2022/03/17 17:10:21;;;;;;;33.40;22.65;;;9.80;99.90;;;;;;4953136;29;20092;-82
2022/03/17 17:12:48;;;;;;;33.22;23.17;;;9.70;99.90;;;;;;4953801;29;20051;-82
2022/03/17 17:15:15;;;;;;;33.63;22.75;;;9.70;99.90;;;;;;4936626;29;20061;-82
2022/03/17 17:17:45;;;;;;;31.25;21.65;;;9.70;99.90;;;;;;4951436;29;20468;-83
2022/03/17 17:20:12;;;;;;;32.65;23.00;;;9.70;99.90;;;;;;4953765;29;20105;-83
2022/03/17 17:30:53;;;;;;;36.72;25.15;;;9.60;99.90;;;;;;4953305;29;19973;-84
2022/03/17 17:33:25;;;;;;;35.50;25.33;;;9.60;99.90;;;;;;4934735;29;20398;-82
2022/03/17 17:35:52;;;;;;;35.53;25.33;;;9.60;99.90;;;;;;4953726;29;20118;-86
2022/03/17 17:38:20;;;;;;;33.83;23.30;;;9.60;99.90;;;;;;4954165;29;20517;-82
2022/03/17 17:40:47;;;;;;;34.20;24.17;;;9.80;99.90;;;;;;4952052;29;20146;-83
2022/03/17 17:43:15;;;;;;;34.75;24.80;;;9.70;99.90;;;;;;4953411;29;20055;-84
2022/03/17 17:45:42;;;;;;;35.60;24.25;;;9.60;99.90;;;;;;4957044;28;20055;-83
2022/03/17 17:48:10;;;;;;;34.92;24.25;;;9.60;99.90;;;;;;4953146;29;20085;-82
2022/03/17 17:50:39;;;;;;;32.97;21.95;;;9.70;99.90;;;;;;4952355;29;20148;-82
2022/03/17 17:53:06;;;;;;;32.22;22.95;;;9.70;99.90;;;;;;4953921;28;20132;-83
2022/03/17 17:55:33;;;;;;;34.97;24.00;;;9.70;99.90;;;;;;4962809;28;20381;-85
2022/03/17 17:58:01;;;;;;;35.35;23.23;;;9.60;99.90;;;;;;4931065;29;20047;-82
2022/03/17 18:00:31;;;;;;;37.28;25.58;;;9.60;99.90;;;;;;4949619;28;20082;-80
2022/03/17 18:03:01;;;;;;;37.63;25.65;;;9.50;99.90;;;;;;4953926;28;20055;-79
2022/03/17 18:05:29;;;;;;;34.75;24.15;;;9.60;99.90;;;;;;4954174;28;20043;-80
2022/03/17 18:07:58;;;;;;;35.45;25.10;;;9.50;99.90;;;;;;4952525;29;20053;-81